aviador You're here:

KSFM Decoded Metar

SANFORD MUNI in ME, USA
Report Time2018-06-20 16:56:00
UTC Time2018-06-20 17:28:12
Flight Rules vfr VFR
Wind220° at 09 kt
W.Decomp.*RWY 25: 8.8 kt HW 2 kt LCW
RWY 32: 1.1 kt HW 8.9 kt LCW
W.Rank220° ranks 7
Current wind is above 220° avg. (6.1)
Visibility9999 m
Phenomena:N/A
Clouds:N/A
Expected CloudBase > 6,000 ft AGL from Temp-Dew spread
CeilingNone
Temp26°C (ISA +11)
Dew Point11°C (39% RH)
AAT23.1°C
QNH1009 hPa
Density Alt1,883 ft
Elevation243 ft
Report Wrong Elevation
Raw Report
KSFM 201656Z AUTO 22009KT 10SM CLR 26/11 A2981 RMK AO2 SLP096
T02560106=

Extra information for KSFM:More info

Metar Taf Metar & Taf Last 4 Metars F.Rules Stats Wind Profile Meteogram Temp Stats Airport Information Weather charts Add Link Nearby VenuesMetar ALERT Operation Metar Decoded Social comments

AIRNAV info for KSFM